Terminal Aerodrome Forecast
Issued by NWS

Home | Current Version | Previous Version | Text Only | Print | Product List | Glossary On
Versions: 1 2 3 4 5 6 7 8 9 10 11 12 13 14 15 16
000
FTUS43 KILX 010500
TAFBMI
TAF
KBMI 010524Z 0106/0206 18010KT P6SM SCT035 BKN120
     FM011100 20012KT 5SM BR VCSH BKN035
     FM011600 22013G22KT P6SM SCT035 BKN250
     FM012000 23015G24KT P6SM -SHRA VCTS BKN035CB
     FM020100 24007KT 5SM -SHRA BR VCTS BKN035CB=

USA.gov is the U.S. government's official web portal to all federal, state and local government web resources and services.